createdAt,value
2023-03-26T00:01:33.948Z,60.54
2023-03-26T00:04:02.496Z,60.30
2023-03-26T00:06:34.032Z,60.06
2023-03-26T00:09:02.429Z,60.47
2023-03-26T00:11:31.540Z,60.48
2023-03-26T00:14:00.462Z,61.29
2023-03-26T00:16:32.649Z,60.75
2023-03-26T00:19:01.917Z,60.65
2023-03-26T00:21:31.996Z,60.62
2023-03-26T00:24:04.539Z,60.42
2023-03-26T00:26:33.968Z,60.66
2023-03-26T00:29:04.245Z,61.19
2023-03-26T00:31:34.622Z,61.89
2023-03-26T00:34:05.773Z,61.52
2023-03-26T00:36:36.117Z,62.25
2023-03-26T00:39:06.342Z,62.78
2023-03-26T00:41:37.417Z,64.42
2023-03-26T00:44:05.844Z,63.70
2023-03-26T00:46:36.424Z,63.19
2023-03-26T00:49:05.545Z,63.95
2023-03-26T00:51:35.195Z,63.78
2023-03-26T00:54:03.528Z,63.20
2023-03-26T00:56:32.523Z,63.59
2023-03-26T00:59:01.398Z,63.13
2023-03-26T01:01:30.571Z,63.32
2023-03-26T01:04:27.503Z,63.63
2023-03-26T01:06:56.899Z,64.02
2023-03-26T01:09:33.176Z,63.78
2023-03-26T01:12:03.167Z,63.46
2023-03-26T01:14:31.589Z,64.94
2023-03-26T01:17:02.425Z,64.44
2023-03-26T01:19:39.293Z,64.31
2023-03-26T01:22:09.847Z,65.85
2023-03-26T01:24:39.728Z,65.90
2023-03-26T01:27:26.050Z,65.73
2023-03-26T01:29:57.159Z,66.19
2023-03-26T01:32:41.712Z,65.88
2023-03-26T01:35:21.661Z,68.02
2023-03-26T01:37:59.074Z,69.50
2023-03-26T01:40:42.869Z,69.11
2023-03-26T01:43:19.257Z,68.43
2023-03-26T01:45:50.957Z,70.14
2023-03-26T01:48:19.496Z,70.06
2023-03-26T01:50:48.796Z,72.81
2023-03-26T01:53:17.402Z,73.66
2023-03-26T01:55:58.356Z,76.68
2023-03-26T01:58:36.452Z,79.80
2023-03-26T02:01:19.739Z,77.27
2023-03-26T02:03:54.844Z,76.43
2023-03-26T02:06:30.875Z,75.49
2023-03-26T02:09:04.578Z,74.66
2023-03-26T02:11:35.863Z,74.87
2023-03-26T02:14:06.157Z,75.37
2023-03-26T02:16:34.750Z,76.26
2023-03-26T02:19:04.575Z,75.14
2023-03-26T02:21:34.181Z,74.96
2023-03-26T02:24:04.175Z,74.22
2023-03-26T02:26:35.992Z,74.17
2023-03-26T02:29:04.814Z,77.46
2023-03-26T02:31:33.326Z,75.38
2023-03-26T02:34:01.640Z,77.08
2023-03-26T02:36:30.103Z,78.01
2023-03-26T02:39:00.355Z,75.83
2023-03-26T02:41:28.611Z,74.54
2023-03-26T02:43:58.391Z,75.99
2023-03-26T02:46:26.760Z,74.15
2023-03-26T02:48:55.094Z,74.50
2023-03-26T02:51:23.421Z,73.18
2023-03-26T02:53:53.843Z,75.00
2023-03-26T02:56:22.257Z,74.45
2023-03-26T02:58:50.609Z,76.93
2023-03-26T03:01:20.440Z,78.48
2023-03-26T03:03:48.806Z,81.90
2023-03-26T03:06:18.980Z,84.50
2023-03-26T03:08:47.736Z,88.43
2023-03-26T03:11:18.063Z,88.54
2023-03-26T03:13:47.090Z,90.94
2023-03-26T03:16:15.685Z,94.21
2023-03-26T03:18:47.582Z,92.48
2023-03-26T03:21:16.021Z,88.88
2023-03-26T03:23:44.303Z,84.17
2023-03-26T03:26:16.169Z,82.30
2023-03-26T03:28:45.533Z,80.67
2023-03-26T03:31:13.885Z,80.31
2023-03-26T03:33:43.091Z,81.33
2023-03-26T03:36:19.744Z,79.69
2023-03-26T03:38:50.086Z,79.20
2023-03-26T03:41:18.865Z,78.65
2023-03-26T03:43:47.304Z,78.78
2023-03-26T03:46:15.645Z,84.42
2023-03-26T03:48:48.392Z,93.59
2023-03-26T03:51:18.530Z,89.80
2023-03-26T03:53:47.475Z,85.05
2023-03-26T03:56:19.366Z,89.26
2023-03-26T03:58:47.763Z,95.97
2023-03-26T04:01:17.097Z,98.12
2023-03-26T04:03:46.952Z,100.00
2023-03-26T04:06:19.124Z,100.00
2023-03-26T04:08:49.039Z,95.69
2023-03-26T04:11:17.295Z,92.69
2023-03-26T04:13:45.871Z,88.04
2023-03-26T04:16:14.288Z,84.06
2023-03-26T04:18:42.540Z,84.94
2023-03-26T04:21:12.761Z,83.48
2023-03-26T04:23:42.577Z,85.72
2023-03-26T04:26:16.905Z,86.69
2023-03-26T04:28:49.354Z,86.20
2023-03-26T04:31:24.874Z,83.13
2023-03-26T04:33:56.080Z,83.62
2023-03-26T04:36:28.655Z,84.07
2023-03-26T04:38:58.640Z,84.21
2023-03-26T04:41:29.294Z,88.16
2023-03-26T04:43:57.724Z,86.89
2023-03-26T04:46:26.204Z,87.18
2023-03-26T04:48:55.782Z,94.23
2023-03-26T04:51:28.469Z,98.24
2023-03-26T04:53:59.173Z,98.54
2023-03-26T04:56:39.201Z,100.00
2023-03-26T04:59:08.921Z,100.00
2023-03-26T05:01:38.919Z,100.00
2023-03-26T05:04:09.307Z,100.00
2023-03-26T05:06:38.188Z,94.34
2023-03-26T05:09:06.504Z,89.40
2023-03-26T05:11:36.221Z,87.87
2023-03-26T05:14:04.579Z,86.16
2023-03-26T05:16:34.311Z,84.32
2023-03-26T05:19:02.600Z,84.48
2023-03-26T05:21:30.998Z,83.80
2023-03-26T05:23:59.336Z,83.07
2023-03-26T05:26:27.856Z,85.69
2023-03-26T05:28:57.811Z,86.34
2023-03-26T05:31:27.204Z,84.39
2023-03-26T05:33:55.581Z,82.38
2023-03-26T05:36:23.889Z,82.36
2023-03-26T05:38:52.522Z,81.08
2023-03-26T05:41:20.875Z,80.23
2023-03-26T05:43:49.154Z,78.36
2023-03-26T05:46:20.501Z,77.64
2023-03-26T05:48:51.793Z,77.14
2023-03-26T05:51:20.108Z,77.01
2023-03-26T05:53:50.995Z,75.85
2023-03-26T05:56:19.287Z,74.16
2023-03-26T05:58:47.735Z,74.19
2023-03-26T06:01:18.686Z,71.70
2023-03-26T06:03:48.528Z,68.90
2023-03-26T06:06:18.697Z,66.49
2023-03-26T06:09:02.382Z,64.20
2023-03-26T06:11:32.321Z,65.93
2023-03-26T06:14:00.735Z,63.86
2023-03-26T06:16:29.144Z,62.60
2023-03-26T06:18:59.164Z,62.07
2023-03-26T06:21:28.055Z,64.93
2023-03-26T06:23:56.947Z,65.36
2023-03-26T06:26:25.482Z,64.96
2023-03-26T06:28:53.793Z,64.25
2023-03-26T06:31:22.115Z,63.60
2023-03-26T06:33:50.419Z,64.03
2023-03-26T06:36:20.078Z,63.64
2023-03-26T06:38:48.413Z,62.34
2023-03-26T06:41:17.142Z,62.49
2023-03-26T06:43:45.571Z,61.29
2023-03-26T06:46:14.163Z,59.46
2023-03-26T06:48:43.266Z,56.73
2023-03-26T06:51:11.898Z,56.97
2023-03-26T06:53:41.675Z,54.59
2023-03-26T06:56:11.121Z,52.02
2023-03-26T06:58:39.617Z,50.64
2023-03-26T07:01:08.634Z,50.63
2023-03-26T07:03:37.052Z,47.56
2023-03-26T07:06:05.941Z,44.41
2023-03-26T07:08:34.214Z,43.47
2023-03-26T07:11:05.146Z,41.06
2023-03-26T07:13:33.426Z,40.97
2023-03-26T07:16:01.792Z,38.98
2023-03-26T07:18:30.453Z,39.44
2023-03-26T07:20:59.453Z,38.08
2023-03-26T07:23:28.502Z,37.33
2023-03-26T07:25:57.392Z,36.65
2023-03-26T07:28:36.353Z,35.55
2023-03-26T07:31:17.052Z,34.65
2023-03-26T07:33:50.789Z,34.47
2023-03-26T07:36:26.337Z,34.99
2023-03-26T07:39:07.331Z,33.15
2023-03-26T07:41:43.716Z,32.03
2023-03-26T07:44:36.033Z,31.79
2023-03-26T07:47:18.816Z,33.16
2023-03-26T07:49:47.643Z,31.53
2023-03-26T07:52:16.259Z,31.09
2023-03-26T07:54:45.084Z,32.04
2023-03-26T07:57:20.419Z,30.97
2023-03-26T07:59:54.253Z,30.29
2023-03-26T08:02:43.514Z,30.10
2023-03-26T08:05:22.057Z,28.92
2023-03-26T08:07:59.880Z,29.43
2023-03-26T08:10:38.291Z,29.75
2023-03-26T08:13:22.188Z,29.61
2023-03-26T08:16:00.693Z,28.23
2023-03-26T08:18:41.703Z,27.53
2023-03-26T08:21:17.329Z,29.16
2023-03-26T08:23:59.145Z,28.38
2023-03-26T08:26:36.563Z,28.45
2023-03-26T08:29:17.534Z,27.65
2023-03-26T08:31:49.850Z,27.56
2023-03-26T08:34:18.238Z,31.26
2023-03-26T08:36:46.906Z,26.53
2023-03-26T08:39:15.327Z,26.12
2023-03-26T08:42:09.821Z,26.75
2023-03-26T08:45:28.786Z,25.07
2023-03-26T08:48:37.968Z,24.46
2023-03-26T08:51:44.772Z,24.09
2023-03-26T08:54:48.579Z,23.95
2023-03-26T08:58:05.479Z,22.91
2023-03-26T09:01:12.558Z,21.78
2023-03-26T09:04:06.838Z,21.23
2023-03-26T09:07:22.072Z,21.05
2023-03-26T09:10:19.204Z,19.70
2023-03-26T09:13:25.075Z,20.76
2023-03-26T09:16:44.492Z,19.01
2023-03-26T09:19:51.959Z,19.71
2023-03-26T09:23:00.500Z,19.25
2023-03-26T09:26:08.140Z,18.75
2023-03-26T09:29:21.216Z,16.24
2023-03-26T09:32:24.678Z,18.68
2023-03-26T09:35:13.265Z,20.09
2023-03-26T09:37:59.488Z,20.49
2023-03-26T09:40:38.243Z,19.95
2023-03-26T09:43:38.789Z,19.34
2023-03-26T09:46:23.300Z,19.98
2023-03-26T09:49:26.510Z,18.34
2023-03-26T09:52:23.646Z,17.84
2023-03-26T09:55:15.607Z,17.12
2023-03-26T09:58:13.826Z,15.75
2023-03-26T10:00:49.880Z,16.37
2023-03-26T10:03:42.759Z,17.94
2023-03-26T10:06:23.955Z,17.80
2023-03-26T10:09:04.486Z,16.71
2023-03-26T10:11:52.664Z,16.20
2023-03-26T10:14:27.591Z,15.96
2023-03-26T10:17:05.909Z,15.43
2023-03-26T10:19:55.000Z,15.65
2023-03-26T10:22:37.788Z,17.78
2023-03-26T10:25:36.705Z,19.91
2023-03-26T10:28:25.040Z,15.40
2023-03-26T10:31:09.256Z,15.58
2023-03-26T10:33:44.244Z,17.66
2023-03-26T10:36:31.527Z,17.16
2023-03-26T10:39:37.787Z,15.46
2023-03-26T10:42:24.975Z,16.55
2023-03-26T10:45:14.261Z,17.25
2023-03-26T10:48:13.620Z,16.34
2023-03-26T10:50:55.347Z,15.52
2023-03-26T10:53:37.646Z,15.79
2023-03-26T10:56:18.670Z,15.34
2023-03-26T10:58:49.605Z,15.25
2023-03-26T11:01:30.037Z,14.60
2023-03-26T11:04:07.091Z,15.14
2023-03-26T11:06:43.445Z,14.64
2023-03-26T11:09:25.764Z,15.90
2023-03-26T11:12:01.702Z,14.99
2023-03-26T11:14:36.722Z,15.13
2023-03-26T11:17:39.384Z,14.69
2023-03-26T11:20:10.116Z,16.86
2023-03-26T11:22:49.459Z,15.37
2023-03-26T11:25:42.346Z,16.17
2023-03-26T11:28:24.468Z,15.32
2023-03-26T11:31:00.650Z,14.03
2023-03-26T11:33:33.894Z,14.86
2023-03-26T11:36:05.227Z,15.67
2023-03-26T11:38:38.525Z,16.22
2023-03-26T11:41:14.306Z,16.21
2023-03-26T11:43:42.623Z,15.11
2023-03-26T11:46:15.934Z,14.54
2023-03-26T11:48:49.134Z,14.94
2023-03-26T11:51:24.423Z,15.91
2023-03-26T11:53:54.708Z,13.91
2023-03-26T11:56:30.000Z,14.30
2023-03-26T11:59:03.114Z,13.96
2023-03-26T12:01:50.731Z,13.90
2023-03-26T12:04:21.162Z,13.73
2023-03-26T12:06:56.847Z,13.74
2023-03-26T12:09:26.727Z,14.13
2023-03-26T12:12:01.224Z,13.08
2023-03-26T12:14:32.350Z,13.54
2023-03-26T12:17:06.284Z,13.80
2023-03-26T12:19:41.326Z,13.97
2023-03-26T12:22:30.825Z,16.64
2023-03-26T12:25:04.248Z,14.61
2023-03-26T12:27:33.376Z,14.84
2023-03-26T12:30:12.417Z,15.38
2023-03-26T12:32:46.843Z,14.94
2023-03-26T12:35:19.628Z,15.64
2023-03-26T12:37:48.974Z,15.61
2023-03-26T12:40:34.359Z,14.46
2023-03-26T12:44:48.982Z,15.96
2023-03-26T12:46:20.671Z,16.28
2023-03-26T12:48:49.196Z,15.41
2023-03-26T12:51:27.522Z,15.24
2023-03-26T12:54:17.518Z,15.29
2023-03-26T12:57:12.772Z,15.83
2023-03-26T12:59:51.420Z,15.63
2023-03-26T13:02:35.774Z,15.54
2023-03-26T13:05:19.988Z,14.21
2023-03-26T13:08:01.622Z,16.57
2023-03-26T13:10:57.553Z,16.54
2023-03-26T13:14:02.108Z,17.42
2023-03-26T13:16:40.833Z,17.89
2023-03-26T13:19:14.590Z,18.23
2023-03-26T13:22:02.538Z,17.66
2023-03-26T13:24:43.449Z,18.52
2023-03-26T13:27:30.424Z,18.71
2023-03-26T13:30:04.391Z,19.01
2023-03-26T13:32:46.986Z,21.52
2023-03-26T13:35:27.342Z,20.94
2023-03-26T13:38:05.640Z,19.84
2023-03-26T13:40:43.780Z,19.76
2023-03-26T13:43:33.890Z,19.87
2023-03-26T13:46:13.401Z,19.45
2023-03-26T13:48:49.199Z,20.81
2023-03-26T13:51:20.883Z,21.11
2023-03-26T13:53:56.857Z,17.81
2023-03-26T13:56:31.064Z,17.79
2023-03-26T13:59:03.529Z,17.21
2023-03-26T14:01:35.410Z,17.06
2023-03-26T14:04:12.119Z,17.60
2023-03-26T14:06:46.876Z,16.88
2023-03-26T14:09:24.693Z,17.54
2023-03-26T14:12:21.824Z,16.52
2023-03-26T14:14:55.593Z,18.11
2023-03-26T14:17:28.402Z,16.64
2023-03-26T14:20:24.888Z,17.00
2023-03-26T14:23:15.120Z,16.43
2023-03-26T14:26:02.948Z,16.88
2023-03-26T14:29:03.452Z,15.86
2023-03-26T14:31:37.824Z,16.94
2023-03-26T14:34:40.888Z,17.00
2023-03-26T14:37:31.506Z,17.07
2023-03-26T14:40:31.884Z,17.08
2023-03-26T14:43:16.779Z,18.80
2023-03-26T14:45:59.653Z,16.94
2023-03-26T14:49:02.012Z,16.93
2023-03-26T14:51:52.679Z,16.74
2023-03-26T14:54:24.781Z,18.20
2023-03-26T14:57:27.257Z,17.61
2023-03-26T15:00:25.414Z,17.08
2023-03-26T15:03:27.420Z,17.23
2023-03-26T15:06:27.751Z,17.68
2023-03-26T15:09:30.075Z,17.43
2023-03-26T15:12:12.340Z,17.55
2023-03-26T15:15:14.764Z,18.25
2023-03-26T15:18:08.341Z,18.40
2023-03-26T15:21:21.771Z,17.91
2023-03-26T15:24:12.145Z,18.27
2023-03-26T15:27:15.387Z,18.91
2023-03-26T15:30:25.695Z,18.29
2023-03-26T15:33:29.988Z,19.30
2023-03-26T15:36:15.069Z,20.11
2023-03-26T15:39:09.542Z,20.28
2023-03-26T15:41:47.272Z,20.32
2023-03-26T15:44:50.894Z,20.05
2023-03-26T15:47:56.015Z,19.96
2023-03-26T15:50:41.383Z,20.25
2023-03-26T15:53:36.655Z,20.54
2023-03-26T15:56:19.080Z,21.12
2023-03-26T15:58:55.711Z,21.18
2023-03-26T16:01:36.553Z,20.74
2023-03-26T16:04:18.931Z,20.57
2023-03-26T16:07:03.040Z,20.58
2023-03-26T16:09:51.646Z,20.48
2023-03-26T16:12:35.204Z,20.69
2023-03-26T16:15:27.411Z,20.86
2023-03-26T16:18:22.552Z,21.00
2023-03-26T16:20:55.273Z,20.45
2023-03-26T16:23:30.593Z,20.77
2023-03-26T16:26:18.076Z,20.80
2023-03-26T16:29:14.474Z,21.04
2023-03-26T16:32:15.318Z,21.40
2023-03-26T16:34:54.438Z,21.25
2023-03-26T16:37:45.591Z,21.32
2023-03-26T16:40:34.527Z,21.62
2023-03-26T16:43:26.795Z,21.86
2023-03-26T16:46:04.517Z,22.32
2023-03-26T16:48:41.463Z,22.44
2023-03-26T16:51:18.755Z,22.70
2023-03-26T16:53:54.472Z,22.95
2023-03-26T16:56:34.538Z,23.27
2023-03-26T16:59:10.438Z,23.96
2023-03-26T17:01:47.208Z,23.90
2023-03-26T17:04:20.849Z,24.65
2023-03-26T17:07:01.868Z,25.24
2023-03-26T17:09:41.603Z,25.76
2023-03-26T17:12:19.952Z,25.51
2023-03-26T17:15:12.144Z,24.88
2023-03-26T17:18:01.445Z,26.40
2023-03-26T17:20:37.155Z,26.13
2023-03-26T17:23:23.143Z,26.08
2023-03-26T17:26:02.174Z,26.77
2023-03-26T17:28:42.203Z,26.92
2023-03-26T17:31:26.537Z,26.12
2023-03-26T17:33:58.300Z,26.96
2023-03-26T17:36:42.443Z,26.78
2023-03-26T17:39:39.781Z,27.03
2023-03-26T17:42:30.865Z,26.75
2023-03-26T17:45:00.140Z,26.78
2023-03-26T17:47:36.102Z,26.58
2023-03-26T17:50:12.733Z,26.35
2023-03-26T17:52:59.860Z,26.37
2023-03-26T17:55:31.686Z,26.72
2023-03-26T17:58:01.391Z,27.29
2023-03-26T18:00:32.926Z,27.58
2023-03-26T18:03:07.939Z,26.60
2023-03-26T18:05:40.605Z,25.92
2023-03-26T18:08:21.837Z,25.66
2023-03-26T18:11:09.157Z,25.43
2023-03-26T18:14:05.691Z,25.80
2023-03-26T18:16:40.248Z,25.66
2023-03-26T18:19:19.671Z,26.61
2023-03-26T18:21:50.859Z,26.91
2023-03-26T18:24:24.566Z,26.98
2023-03-26T18:26:58.512Z,26.38
2023-03-26T18:29:29.226Z,26.89
2023-03-26T18:32:00.621Z,27.22
2023-03-26T18:34:32.333Z,26.84
2023-03-26T18:37:16.572Z,26.55
2023-03-26T18:39:58.516Z,27.74
2023-03-26T18:42:28.490Z,27.03
2023-03-26T18:45:00.843Z,27.05
2023-03-26T18:47:31.972Z,27.29
2023-03-26T18:50:02.100Z,27.90
2023-03-26T18:52:32.860Z,28.04
2023-03-26T18:55:03.231Z,28.04
2023-03-26T18:57:31.626Z,28.73
2023-03-26T19:00:18.694Z,28.54
2023-03-26T19:02:49.930Z,28.85
2023-03-26T19:05:21.513Z,29.17
2023-03-26T19:07:52.511Z,28.92
2023-03-26T19:10:22.339Z,29.25
2023-03-26T19:12:57.520Z,30.02
2023-03-26T19:15:28.518Z,30.42
2023-03-26T19:18:03.947Z,30.89
2023-03-26T19:20:41.535Z,31.32
2023-03-26T19:23:14.887Z,30.86
2023-03-26T19:25:47.633Z,31.60
2023-03-26T19:28:23.198Z,32.75
2023-03-26T19:30:56.534Z,32.46
2023-03-26T19:33:26.557Z,32.96
2023-03-26T19:36:04.923Z,32.50
2023-03-26T19:38:40.749Z,33.20
2023-03-26T19:41:22.804Z,34.05
2023-03-26T19:43:51.623Z,33.23
2023-03-26T19:46:23.097Z,33.76
2023-03-26T19:48:54.398Z,34.14
2023-03-26T19:51:25.870Z,34.27
2023-03-26T19:53:55.961Z,34.49
2023-03-26T19:56:24.710Z,34.35
2023-03-26T19:58:54.506Z,35.32
2023-03-26T20:01:25.109Z,35.43
2023-03-26T20:03:56.589Z,34.69
2023-03-26T20:06:41.511Z,34.90
2023-03-26T20:09:12.248Z,34.38
2023-03-26T20:11:40.952Z,34.71
2023-03-26T20:14:14.732Z,34.57
2023-03-26T20:16:45.204Z,34.41
2023-03-26T20:19:14.867Z,36.05
2023-03-26T20:21:45.971Z,36.88
2023-03-26T20:24:17.264Z,35.96
2023-03-26T20:26:46.753Z,36.00
2023-03-26T20:29:16.091Z,36.06
2023-03-26T20:31:45.369Z,36.72
2023-03-26T20:34:18.484Z,35.96
2023-03-26T20:36:54.442Z,36.69
2023-03-26T20:39:23.702Z,36.12
2023-03-26T20:41:53.802Z,36.75
2023-03-26T20:44:23.415Z,37.16
2023-03-26T20:46:52.685Z,37.43
2023-03-26T20:49:22.460Z,37.34
2023-03-26T20:51:52.894Z,37.56
2023-03-26T20:54:24.078Z,36.58
2023-03-26T20:56:53.581Z,38.14
2023-03-26T20:59:26.692Z,37.98
2023-03-26T21:01:57.925Z,38.39
2023-03-26T21:04:27.097Z,37.82
2023-03-26T21:07:06.978Z,38.19
2023-03-26T21:09:40.104Z,39.13
2023-03-26T21:12:11.375Z,38.82
2023-03-26T21:14:42.235Z,38.68
2023-03-26T21:17:16.295Z,38.36
2023-03-26T21:19:45.821Z,37.24
2023-03-26T21:22:28.963Z,36.84
2023-03-26T21:25:10.492Z,37.70
2023-03-26T21:27:47.397Z,39.00
2023-03-26T21:30:17.789Z,38.23
2023-03-26T21:32:47.391Z,38.89
2023-03-26T21:35:16.980Z,40.12
2023-03-26T21:37:48.856Z,39.19
2023-03-26T21:40:18.938Z,39.26
2023-03-26T21:42:49.647Z,39.25
2023-03-26T21:45:18.981Z,40.12
2023-03-26T21:47:48.007Z,40.30
2023-03-26T21:50:18.942Z,40.89
2023-03-26T21:52:49.429Z,40.50
2023-03-26T21:55:20.208Z,40.71
2023-03-26T21:58:18.543Z,41.68
2023-03-26T22:00:58.945Z,41.58
2023-03-26T22:03:34.187Z,41.33
2023-03-26T22:06:08.534Z,41.59
2023-03-26T22:08:40.261Z,42.06
2023-03-26T22:11:09.838Z,42.53
2023-03-26T22:13:39.135Z,42.61
2023-03-26T22:16:09.914Z,41.77
2023-03-26T22:18:38.341Z,43.34
2023-03-26T22:21:07.219Z,42.48
2023-03-26T22:23:36.773Z,42.69
2023-03-26T22:26:07.362Z,42.94
2023-03-26T22:28:35.862Z,42.90
2023-03-26T22:31:08.648Z,42.65
2023-03-26T22:33:37.158Z,42.63
2023-03-26T22:36:05.972Z,42.54
2023-03-26T22:38:54.503Z,42.58
2023-03-26T22:41:24.717Z,42.50
2023-03-26T22:43:55.360Z,42.16
2023-03-26T22:46:24.499Z,42.43
2023-03-26T22:48:53.021Z,42.62
2023-03-26T22:51:21.472Z,43.40
2023-03-26T22:53:49.926Z,42.97
2023-03-26T22:56:18.872Z,42.70
2023-03-26T22:58:48.851Z,42.70
2023-03-26T23:01:19.379Z,42.84
2023-03-26T23:03:47.873Z,43.17
2023-03-26T23:06:17.272Z,42.52
2023-03-26T23:08:45.625Z,42.72
2023-03-26T23:11:16.296Z,42.56
2023-03-26T23:13:46.160Z,42.82
2023-03-26T23:16:17.133Z,42.73
2023-03-26T23:18:45.488Z,43.25
2023-03-26T23:21:15.668Z,43.25
2023-03-26T23:23:44.446Z,43.01
2023-03-26T23:26:12.841Z,43.56
2023-03-26T23:28:41.804Z,43.61
2023-03-26T23:31:12.481Z,43.61
2023-03-26T23:33:46.194Z,43.32
2023-03-26T23:36:17.861Z,43.26
2023-03-26T23:38:48.357Z,42.91
2023-03-26T23:41:18.194Z,43.06
2023-03-26T23:43:53.384Z,42.75
2023-03-26T23:46:24.897Z,43.99
2023-03-26T23:48:55.176Z,44.48
2023-03-26T23:51:24.180Z,44.22
2023-03-26T23:53:52.730Z,44.94
2023-03-26T23:56:21.194Z,44.35
2023-03-26T23:58:49.934Z,44.71
